createdAt,value
2018-09-18T00:00:37.629Z,0
2018-09-18T00:01:47.738Z,0
2018-09-18T00:02:57.844Z,0
2018-09-18T00:04:07.416Z,0
2018-09-18T00:05:17.552Z,0
2018-09-18T00:06:27.660Z,0
2018-09-18T00:07:37.499Z,0
2018-09-18T00:08:47.334Z,0
2018-09-18T00:09:56.906Z,0
2018-09-18T00:11:06.755Z,0
2018-09-18T00:12:16.605Z,0
2018-09-18T00:13:26.177Z,0
2018-09-18T00:14:35.745Z,0
2018-09-18T00:15:45.345Z,0
2018-09-18T00:16:55.420Z,0
2018-09-18T00:18:05.266Z,0
2018-09-18T00:19:15.102Z,0
2018-09-18T00:20:24.672Z,0
2018-09-18T00:21:34.238Z,0
2018-09-18T00:22:44.346Z,0
2018-09-18T00:23:53.377Z,0
2018-09-18T00:25:03.248Z,0
2018-09-18T00:26:13.290Z,0
2018-09-18T00:27:22.861Z,0
2018-09-18T00:28:32.700Z,0
2018-09-18T00:29:42.542Z,0
2018-09-18T00:30:52.650Z,0
2018-09-18T00:32:02.217Z,0
2018-09-18T00:33:12.334Z,0
2018-09-18T00:34:21.948Z,0
2018-09-18T00:35:31.795Z,0
2018-09-18T00:36:41.906Z,0
2018-09-18T00:37:51.472Z,0
2018-09-18T00:39:01.590Z,0
2018-09-18T00:40:10.900Z,0
2018-09-18T00:41:20.743Z,0
2018-09-18T00:42:30.588Z,0
2018-09-18T00:43:40.167Z,0
2018-09-18T00:44:50.011Z,0
2018-09-18T00:46:00.170Z,0
2018-09-18T00:47:10.333Z,0
2018-09-18T00:48:20.178Z,0
2018-09-18T00:49:30.026Z,0
2018-09-18T00:50:39.595Z,0
2018-09-18T00:51:49.712Z,0
2018-09-18T00:52:59.580Z,0
2018-09-18T00:54:09.689Z,0
2018-09-18T00:55:19.255Z,0
2018-09-18T00:56:29.099Z,0
2018-09-18T00:57:39.216Z,0
2018-09-18T00:58:48.517Z,0
2018-09-18T00:59:58.358Z,0
2018-09-18T01:01:08.469Z,0
2018-09-18T01:02:18.321Z,0
2018-09-18T01:03:27.895Z,0
2018-09-18T01:04:37.468Z,0
2018-09-18T01:05:46.783Z,0
2018-09-18T01:06:56.619Z,0
2018-09-18T01:08:06.732Z,0
2018-09-18T01:09:16.311Z,0
2018-09-18T01:10:25.342Z,0
2018-09-18T01:11:34.909Z,0
2018-09-18T01:12:44.748Z,0
2018-09-18T01:13:54.888Z,0
2018-09-18T01:15:04.454Z,0
2018-09-18T01:16:14.289Z,0
2018-09-18T01:17:24.124Z,0
2018-09-18T01:18:33.693Z,0
2018-09-18T01:19:43.528Z,0
2018-09-18T01:20:53.632Z,0
2018-09-18T01:22:03.736Z,0
2018-09-18T01:23:13.610Z,0
2018-09-18T01:24:23.185Z,0
2018-09-18T01:25:32.539Z,0
2018-09-18T01:26:41.888Z,0
2018-09-18T01:27:51.996Z,0
2018-09-18T01:29:01.843Z,0
2018-09-18T01:30:11.687Z,0
2018-09-18T01:31:21.529Z,0
2018-09-18T01:32:30.829Z,0
2018-09-18T01:33:40.901Z,0
2018-09-18T01:34:50.475Z,0
2018-09-18T01:36:00.311Z,0
2018-09-18T01:37:10.162Z,0
2018-09-18T01:38:19.515Z,0
2018-09-18T01:39:29.354Z,0
2018-09-18T01:40:39.452Z,0
2018-09-18T01:41:49.023Z,0
2018-09-18T01:42:58.863Z,0
2018-09-18T01:44:08.431Z,0
2018-09-18T01:45:17.734Z,0
2018-09-18T01:46:27.334Z,0
2018-09-18T01:47:37.172Z,0
2018-09-18T01:48:47.011Z,0
2018-09-18T01:49:56.904Z,0
2018-09-18T01:51:07.017Z,0
2018-09-18T01:52:16.858Z,0
2018-09-18T01:53:26.689Z,0
2018-09-18T01:54:36.528Z,0
2018-09-18T01:55:46.685Z,0
2018-09-18T01:56:56.534Z,0
2018-09-18T01:58:06.648Z,0
2018-09-18T01:59:16.519Z,0
2018-09-18T02:00:26.095Z,0
2018-09-18T02:01:36.206Z,0
2018-09-18T02:02:45.784Z,0
2018-09-18T02:03:55.632Z,0
2018-09-18T02:05:05.470Z,0
2018-09-18T02:06:15.311Z,0
2018-09-18T02:07:24.885Z,0
2018-09-18T02:08:34.453Z,0
2018-09-18T02:09:44.569Z,0
2018-09-18T02:10:53.604Z,0
2018-09-18T02:12:03.449Z,0
2018-09-18T02:13:13.568Z,0
2018-09-18T02:14:23.675Z,0
2018-09-18T02:15:32.975Z,0
2018-09-18T02:16:43.084Z,0
2018-09-18T02:17:52.382Z,0
2018-09-18T02:19:02.218Z,0
2018-09-18T02:20:12.056Z,0
2018-09-18T02:21:21.630Z,0
2018-09-18T02:22:31.201Z,0
2018-09-18T02:23:41.019Z,0
2018-09-18T02:24:50.859Z,0
2018-09-18T02:26:00.976Z,0
2018-09-18T02:27:10.823Z,0
2018-09-18T02:28:20.664Z,0
2018-09-18T02:29:30.497Z,0
2018-09-18T02:30:40.074Z,0
2018-09-18T02:31:49.655Z,0
2018-09-18T02:32:59.782Z,0
2018-09-18T02:34:10.144Z,0
2018-09-18T02:35:20.283Z,0
2018-09-18T02:36:30.399Z,0
2018-09-18T02:37:40.245Z,0
2018-09-18T02:38:49.815Z,0
2018-09-18T02:39:59.946Z,0
2018-09-18T02:41:09.787Z,0
2018-09-18T02:42:19.357Z,0
2018-09-18T02:43:28.934Z,0
2018-09-18T02:44:38.502Z,0
2018-09-18T02:45:48.607Z,0
2018-09-18T02:46:58.779Z,0
2018-09-18T02:48:08.672Z,0
2018-09-18T02:49:18.515Z,0
2018-09-18T02:50:28.623Z,0
2018-09-18T02:51:38.736Z,0
2018-09-18T02:52:48.309Z,0
2018-09-18T02:53:57.882Z,0
2018-09-18T02:55:07.465Z,0
2018-09-18T02:56:17.576Z,0
2018-09-18T02:57:27.429Z,0
2018-09-18T02:58:37.264Z,0
2018-09-18T02:59:47.138Z,0
2018-09-18T03:00:57.256Z,0
2018-09-18T03:02:06.833Z,0
2018-09-18T03:03:16.950Z,0
2018-09-18T03:04:26.823Z,0
2018-09-18T03:05:36.225Z,0
2018-09-18T03:06:46.083Z,0
2018-09-18T03:07:56.208Z,0
2018-09-18T03:09:06.052Z,0
2018-09-18T03:10:15.899Z,0
2018-09-18T03:11:26.044Z,0
2018-09-18T03:12:36.080Z,0
2018-09-18T03:13:45.693Z,0
2018-09-18T03:14:55.262Z,0
2018-09-18T03:16:05.119Z,0
2018-09-18T03:17:14.995Z,0
2018-09-18T03:18:25.107Z,0
2018-09-18T03:19:34.951Z,0
2018-09-18T03:20:44.801Z,0
2018-09-18T03:21:54.104Z,0
2018-09-18T03:23:03.688Z,0
2018-09-18T03:24:13.848Z,0
2018-09-18T03:25:23.777Z,0
2018-09-18T03:26:33.359Z,0
2018-09-18T03:27:43.207Z,0
2018-09-18T03:28:53.107Z,0
2018-09-18T03:30:02.955Z,0
2018-09-18T03:31:12.301Z,0
2018-09-18T03:32:22.193Z,0
2018-09-18T03:33:32.138Z,0
2018-09-18T03:34:42.263Z,0
2018-09-18T03:35:52.111Z,0
2018-09-18T03:37:02.253Z,0
2018-09-18T03:38:11.850Z,0
2018-09-18T03:39:21.444Z,0
2018-09-18T03:40:31.288Z,0
2018-09-18T03:41:41.132Z,0
2018-09-18T03:42:51.247Z,0
2018-09-18T03:44:00.824Z,0
2018-09-18T03:45:10.405Z,0
2018-09-18T03:46:20.302Z,0
2018-09-18T03:47:29.600Z,0
2018-09-18T03:48:39.478Z,0
2018-09-18T03:49:48.782Z,0
2018-09-18T03:50:58.353Z,0
2018-09-18T03:52:08.516Z,0
2018-09-18T03:53:18.089Z,0
2018-09-18T03:54:27.944Z,0
2018-09-18T03:55:37.832Z,0
2018-09-18T03:56:47.693Z,0
2018-09-18T03:57:57.807Z,0
2018-09-18T03:59:07.692Z,0
2018-09-18T04:00:17.535Z,0
2018-09-18T04:01:27.389Z,0
2018-09-18T04:02:37.223Z,0
2018-09-18T04:03:47.103Z,0
2018-09-18T04:04:57.220Z,0
2018-09-18T04:06:06.808Z,0
2018-09-18T04:07:16.659Z,0
2018-09-18T04:08:26.772Z,0
2018-09-18T04:09:36.884Z,0
2018-09-18T04:10:46.525Z,0
2018-09-18T04:11:56.125Z,0
2018-09-18T04:13:06.253Z,0
2018-09-18T04:14:16.374Z,0
2018-09-18T04:15:26.223Z,0
2018-09-18T04:16:36.331Z,0
2018-09-18T04:17:46.208Z,0
2018-09-18T04:18:56.349Z,0
2018-09-18T04:20:06.229Z,0
2018-09-18T04:21:16.084Z,0
2018-09-18T04:22:25.388Z,0
2018-09-18T04:23:35.241Z,0
2018-09-18T04:24:45.346Z,0
2018-09-18T04:25:55.182Z,0
2018-09-18T04:27:05.071Z,0
2018-09-18T04:28:14.930Z,0
2018-09-18T04:29:25.054Z,0
2018-09-18T04:30:34.909Z,0
2018-09-18T04:31:44.505Z,0
2018-09-18T04:32:54.346Z,0
2018-09-18T04:34:04.480Z,0
2018-09-18T04:35:14.595Z,0
2018-09-18T04:36:24.167Z,0
2018-09-18T04:37:33.752Z,0
2018-09-18T04:38:43.919Z,0
2018-09-18T04:39:53.765Z,0
2018-09-18T04:41:03.876Z,0
2018-09-18T04:42:13.712Z,0
2018-09-18T04:43:23.296Z,0
2018-09-18T04:44:32.947Z,0
2018-09-18T04:45:42.794Z,0
2018-09-18T04:46:52.099Z,0
2018-09-18T04:48:01.944Z,0
2018-09-18T04:49:11.247Z,0
2018-09-18T04:50:21.084Z,0
2018-09-18T04:51:30.416Z,0
2018-09-18T04:52:39.990Z,0
2018-09-18T04:53:49.868Z,0
2018-09-18T04:55:00.381Z,0
2018-09-18T04:56:10.505Z,0
2018-09-18T04:57:20.088Z,0
2018-09-18T04:58:29.937Z,0
2018-09-18T04:59:39.237Z,5
2018-09-18T05:00:49.352Z,5
2018-09-18T05:01:59.739Z,5
2018-09-18T05:03:08.721Z,5
2018-09-18T05:04:18.288Z,5
2018-09-18T05:05:28.153Z,10
2018-09-18T05:06:37.182Z,10
2018-09-18T05:07:47.347Z,10
2018-09-18T05:08:57.461Z,10
2018-09-18T05:10:07.589Z,10
2018-09-18T05:11:17.426Z,15
2018-09-18T05:12:27.266Z,15
2018-09-18T05:13:36.353Z,15
2018-09-18T05:14:46.192Z,15
2018-09-18T05:15:55.763Z,15
2018-09-18T05:17:05.607Z,20
2018-09-18T05:18:15.745Z,20
2018-09-18T05:19:25.596Z,20
2018-09-18T05:20:35.172Z,20
2018-09-18T05:21:44.206Z,25
2018-09-18T05:22:54.312Z,25
2018-09-18T05:24:03.881Z,25
2018-09-18T05:25:13.450Z,25
2018-09-18T05:26:23.288Z,30
2018-09-18T05:27:33.409Z,30
2018-09-18T05:28:43.252Z,30
2018-09-18T05:29:53.401Z,35
2018-09-18T05:31:03.240Z,35
2018-09-18T05:32:13.080Z,35
2018-09-18T05:33:23.107Z,40
2018-09-18T05:34:32.674Z,40
2018-09-18T05:35:42.270Z,45
2018-09-18T05:36:52.109Z,45
2018-09-18T05:38:01.685Z,45
2018-09-18T05:39:11.802Z,45
2018-09-18T05:40:21.640Z,50
2018-09-18T05:41:31.749Z,50
2018-09-18T05:42:41.866Z,50
2018-09-18T05:43:51.975Z,55
2018-09-18T05:45:01.813Z,55
2018-09-18T05:46:11.376Z,55
2018-09-18T05:47:20.954Z,60
2018-09-18T05:48:31.068Z,60
2018-09-18T05:49:40.914Z,60
2018-09-18T05:50:50.806Z,65
2018-09-18T05:52:00.378Z,65
2018-09-18T05:53:10.236Z,65
2018-09-18T05:54:19.738Z,70
2018-09-18T05:55:29.852Z,70
2018-09-18T05:56:39.424Z,70
2018-09-18T05:57:49.260Z,75
2018-09-18T05:58:58.873Z,75
2018-09-18T06:00:08.717Z,80
2018-09-18T06:01:18.560Z,80
2018-09-18T06:02:27.643Z,80
2018-09-18T06:03:37.482Z,85
2018-09-18T06:04:47.059Z,85
2018-09-18T06:05:56.904Z,85
2018-09-18T06:07:06.473Z,90
2018-09-18T06:08:16.583Z,90
2018-09-18T06:09:26.433Z,90
2018-09-18T06:10:36.596Z,90
2018-09-18T06:11:46.741Z,90
2018-09-18T06:12:56.583Z,95
2018-09-18T06:14:06.187Z,95
2018-09-18T06:15:16.531Z,95
2018-09-18T06:16:26.101Z,100
2018-09-18T06:17:35.971Z,100
2018-09-18T06:18:46.577Z,105
2018-09-18T06:19:56.489Z,105
2018-09-18T06:21:06.418Z,105
2018-09-18T06:22:16.531Z,110
2018-09-18T06:23:25.830Z,110
2018-09-18T06:24:35.405Z,110
2018-09-18T06:25:45.253Z,110
2018-09-18T06:26:54.831Z,110
2018-09-18T06:28:04.129Z,115
2018-09-18T06:29:14.042Z,115
2018-09-18T06:30:23.763Z,115
2018-09-18T06:31:34.256Z,115
2018-09-18T06:32:43.611Z,115
2018-09-18T06:33:53.719Z,115
2018-09-18T06:35:03.835Z,120
2018-09-18T06:36:14.001Z,120
2018-09-18T06:37:23.559Z,120
2018-09-18T06:38:33.690Z,120
2018-09-18T06:39:43.532Z,120
2018-09-18T06:40:53.104Z,120
2018-09-18T06:42:02.979Z,120
2018-09-18T06:43:12.602Z,120
2018-09-18T06:44:22.447Z,120
2018-09-18T06:45:32.313Z,120
2018-09-18T06:46:42.436Z,120
2018-09-18T06:47:52.687Z,120
2018-09-18T06:49:02.796Z,120
2018-09-18T06:50:12.374Z,120
2018-09-18T06:51:22.226Z,120
2018-09-18T06:52:31.794Z,125
2018-09-18T06:53:41.903Z,125
2018-09-18T06:54:51.791Z,125
2018-09-18T06:56:01.902Z,125
2018-09-18T06:57:11.201Z,125
2018-09-18T06:58:21.316Z,125
2018-09-18T06:59:31.165Z,125
2018-09-18T07:00:41.049Z,130
2018-09-18T07:01:50.927Z,125
2018-09-18T07:03:01.036Z,125
2018-09-18T07:04:10.897Z,125
2018-09-18T07:05:20.477Z,125
2018-09-18T07:06:30.056Z,130
2018-09-18T07:07:39.633Z,130
2018-09-18T07:08:49.472Z,130
2018-09-18T07:09:58.240Z,130
2018-09-18T07:11:07.269Z,130
2018-09-18T07:12:17.163Z,130
2018-09-18T07:13:27.005Z,130
2018-09-18T07:14:36.312Z,135
2018-09-18T07:15:46.163Z,135
2018-09-18T07:16:56.010Z,135
2018-09-18T07:18:06.547Z,135
2018-09-18T07:19:16.443Z,135
2018-09-18T07:20:26.286Z,135
2018-09-18T07:21:36.398Z,135
2018-09-18T07:22:46.529Z,135
2018-09-18T07:23:56.642Z,135
2018-09-18T07:25:07.120Z,135
2018-09-18T07:26:16.965Z,135
2018-09-18T07:27:26.811Z,140
2018-09-18T07:28:36.926Z,140
2018-09-18T07:29:46.772Z,140
2018-09-18T07:30:56.891Z,145
2018-09-18T07:32:06.740Z,140
2018-09-18T07:33:16.592Z,140
2018-09-18T07:34:26.433Z,140
2018-09-18T07:35:36.289Z,140
2018-09-18T07:36:45.861Z,140
2018-09-18T07:37:55.438Z,140
2018-09-18T07:39:05.310Z,140
2018-09-18T07:40:15.423Z,140
2018-09-18T07:41:25.301Z,140
2018-09-18T07:42:35.430Z,140
2018-09-18T07:43:45.305Z,145
2018-09-18T07:44:54.876Z,145
2018-09-18T07:46:05.000Z,145
2018-09-18T07:47:14.851Z,145
2018-09-18T07:48:24.694Z,145
2018-09-18T07:49:35.020Z,145
2018-09-18T07:50:45.049Z,145
2018-09-18T07:51:54.914Z,145
2018-09-18T07:53:04.760Z,145
2018-09-18T07:54:14.607Z,145
2018-09-18T07:55:24.465Z,145
2018-09-18T07:56:34.287Z,145
2018-09-18T07:57:43.858Z,145
2018-09-18T07:58:53.755Z,145
2018-09-18T08:00:03.613Z,145
2018-09-18T08:01:13.185Z,145
2018-09-18T08:02:22.764Z,145
2018-09-18T08:03:32.612Z,150
2018-09-18T08:04:42.516Z,150
2018-09-18T08:05:52.390Z,150
2018-09-18T08:07:02.239Z,150
2018-09-18T08:08:12.090Z,150
2018-09-18T08:09:21.939Z,150
2018-09-18T08:10:31.251Z,150
2018-09-18T08:11:41.089Z,150
2018-09-18T08:12:50.687Z,150
2018-09-18T08:14:00.805Z,150
2018-09-18T08:15:10.374Z,150
2018-09-18T08:16:20.498Z,150
2018-09-18T08:17:30.354Z,155
2018-09-18T08:18:40.494Z,155
2018-09-18T08:19:51.799Z,155
2018-09-18T08:21:01.917Z,155
2018-09-18T08:22:12.198Z,155
2018-09-18T08:23:22.042Z,155
2018-09-18T08:24:31.893Z,155
2018-09-18T08:25:41.329Z,155
2018-09-18T08:26:50.552Z,155
2018-09-18T08:28:00.921Z,155
2018-09-18T08:29:10.519Z,155
2018-09-18T08:30:20.365Z,155
2018-09-18T08:31:29.945Z,160
2018-09-18T08:32:40.273Z,160
2018-09-18T08:33:50.273Z,160
2018-09-18T08:35:00.148Z,160
2018-09-18T08:36:10.288Z,160
2018-09-18T08:37:20.131Z,160
2018-09-18T08:38:30.242Z,160
2018-09-18T08:39:39.957Z,160
2018-09-18T08:40:49.261Z,160
2018-09-18T08:41:59.458Z,160
2018-09-18T08:43:09.677Z,155
2018-09-18T08:44:19.608Z,155
2018-09-18T08:45:29.778Z,160
2018-09-18T08:46:39.666Z,160
2018-09-18T08:47:49.791Z,160
2018-09-18T08:48:59.802Z,160
2018-09-18T08:50:09.936Z,160
2018-09-18T08:51:19.314Z,160
2018-09-18T08:52:28.924Z,160
2018-09-18T08:53:39.069Z,160
2018-09-18T08:54:48.963Z,160
2018-09-18T08:55:59.148Z,160
2018-09-18T08:57:09.330Z,160
2018-09-18T08:58:19.529Z,160
2018-09-18T08:59:28.558Z,165
2018-09-18T09:00:38.398Z,165
2018-09-18T09:01:48.190Z,165
2018-09-18T09:02:58.389Z,165
2018-09-18T09:04:08.493Z,165
2018-09-18T09:05:18.600Z,165
2018-09-18T09:06:28.606Z,165
2018-09-18T09:07:39.279Z,165
2018-09-18T09:08:49.571Z,165
2018-09-18T09:09:59.245Z,165
2018-09-18T09:11:09.211Z,165
2018-09-18T09:12:19.400Z,165
2018-09-18T09:13:29.008Z,165
2018-09-18T09:14:38.996Z,165
2018-09-18T09:15:49.217Z,165
2018-09-18T09:16:58.795Z,165
2018-09-18T09:18:09.554Z,165
2018-09-18T09:19:19.603Z,165
2018-09-18T09:20:29.750Z,170
2018-09-18T09:21:39.682Z,165
2018-09-18T09:22:49.288Z,170
2018-09-18T09:23:59.010Z,170
2018-09-18T09:25:08.358Z,170
2018-09-18T09:26:18.248Z,170
2018-09-18T09:27:28.362Z,170
2018-09-18T09:28:38.596Z,170
2018-09-18T09:29:49.312Z,170
2018-09-18T09:30:58.977Z,170
2018-09-18T09:32:08.825Z,170
2018-09-18T09:33:18.818Z,170
2018-09-18T09:34:28.713Z,170
2018-09-18T09:35:38.982Z,170
2018-09-18T09:36:48.664Z,170
2018-09-18T09:37:58.555Z,170
2018-09-18T09:39:08.466Z,170
2018-09-18T09:40:18.576Z,170
2018-09-18T09:41:28.429Z,175
2018-09-18T09:42:38.206Z,175
2018-09-18T09:43:48.260Z,175
2018-09-18T09:44:58.460Z,175
2018-09-18T09:46:08.106Z,175
2018-09-18T09:47:18.232Z,175
2018-09-18T09:48:27.806Z,175
2018-09-18T09:49:37.452Z,175
2018-09-18T09:50:47.297Z,175
2018-09-18T09:51:56.876Z,175
2018-09-18T09:53:06.751Z,175
2018-09-18T09:54:16.604Z,175
2018-09-18T09:55:25.918Z,180
2018-09-18T09:56:35.768Z,180
2018-09-18T09:57:45.620Z,180
2018-09-18T09:58:55.467Z,180
2018-09-18T10:00:05.581Z,180
2018-09-18T10:01:15.756Z,180
2018-09-18T10:02:25.671Z,180
2018-09-18T10:03:35.249Z,180
2018-09-18T10:04:45.110Z,180
2018-09-18T10:05:55.227Z,180
2018-09-18T10:07:05.342Z,180
2018-09-18T10:08:15.198Z,185
2018-09-18T10:09:25.316Z,185
2018-09-18T10:10:35.600Z,185
2018-09-18T10:11:45.255Z,185
2018-09-18T10:12:55.128Z,185
2018-09-18T10:14:04.984Z,185
2018-09-18T10:15:14.973Z,185
2018-09-18T10:16:24.856Z,185
2018-09-18T10:17:34.469Z,185
2018-09-18T10:18:44.335Z,185
2018-09-18T10:19:54.200Z,185
2018-09-18T10:21:03.508Z,185
2018-09-18T10:22:13.082Z,185
2018-09-18T10:23:22.758Z,185
2018-09-18T10:24:32.967Z,185
2018-09-18T10:25:43.136Z,185
2018-09-18T10:26:53.383Z,190
2018-09-18T10:28:03.354Z,185
2018-09-18T10:29:13.682Z,185
2018-09-18T10:30:23.596Z,185
2018-09-18T10:31:33.511Z,185
2018-09-18T10:32:43.313Z,185
2018-09-18T10:33:53.202Z,185
2018-09-18T10:35:02.867Z,185
2018-09-18T10:36:12.466Z,185
2018-09-18T10:37:22.647Z,185
2018-09-18T10:38:32.864Z,185
2018-09-18T10:39:42.777Z,185
2018-09-18T10:40:53.106Z,185
2018-09-18T10:42:04.161Z,190
2018-09-18T10:43:13.827Z,190
2018-09-18T10:44:24.011Z,190
2018-09-18T10:45:34.246Z,190
2018-09-18T10:46:43.866Z,190
2018-09-18T10:47:54.115Z,190
2018-09-18T10:49:04.005Z,190
2018-09-18T10:50:13.584Z,190
2018-09-18T10:51:23.709Z,190
2018-09-18T10:52:33.439Z,195
2018-09-18T10:53:43.596Z,195
2018-09-18T10:54:53.178Z,195
2018-09-18T10:56:02.486Z,195
2018-09-18T10:57:12.069Z,195
2018-09-18T10:58:21.921Z,195
2018-09-18T10:59:31.232Z,200
2018-09-18T11:00:41.428Z,200
2018-09-18T11:01:51.474Z,200
2018-09-18T11:03:02.069Z,200
2018-09-18T11:04:11.998Z,205
2018-09-18T11:05:21.915Z,205
2018-09-18T11:06:31.794Z,205
2018-09-18T11:07:42.992Z,205
2018-09-18T11:08:53.387Z,205
2018-09-18T11:10:03.283Z,205
2018-09-18T11:11:12.970Z,205
2018-09-18T11:12:22.466Z,210
2018-09-18T11:13:32.303Z,210
2018-09-18T11:14:42.583Z,215
2018-09-18T11:15:53.239Z,220
2018-09-18T11:17:03.323Z,215
2018-09-18T11:18:13.320Z,215
2018-09-18T11:19:22.954Z,215
2018-09-18T11:20:32.870Z,220
2018-09-18T11:21:43.501Z,220
2018-09-18T11:22:53.178Z,220
2018-09-18T11:24:02.416Z,225
2018-09-18T11:25:12.243Z,225
2018-09-18T11:26:22.241Z,225
2018-09-18T11:27:32.143Z,225
2018-09-18T11:28:42.181Z,225
2018-09-18T11:29:52.101Z,225
2018-09-18T11:31:02.305Z,225
2018-09-18T11:32:11.981Z,225
2018-09-18T11:33:21.899Z,225
2018-09-18T11:34:31.848Z,225
2018-09-18T11:35:42.031Z,225
2018-09-18T11:36:51.877Z,225
2018-09-18T11:38:01.183Z,230
2018-09-18T11:39:11.305Z,230
2018-09-18T11:40:21.129Z,230
2018-09-18T11:41:30.436Z,230
2018-09-18T11:42:40.288Z,230
2018-09-18T11:43:50.440Z,235
2018-09-18T11:45:00.569Z,240
2018-09-18T11:46:11.123Z,250
2018-09-18T11:47:21.255Z,280
2018-09-18T11:48:31.112Z,310
2018-09-18T11:49:40.698Z,345
2018-09-18T11:50:50.881Z,1015
2018-09-18T11:52:00.735Z,1400
2018-09-18T11:53:10.865Z,1215
2018-09-18T11:54:20.447Z,1010
2018-09-18T11:55:30.302Z,805
2018-09-18T11:56:40.638Z,580
2018-09-18T11:57:50.769Z,870
2018-09-18T11:59:00.907Z,730
2018-09-18T12:00:09.949Z,690
2018-09-18T12:01:19.538Z,885
2018-09-18T12:02:29.390Z,1005
2018-09-18T12:03:38.704Z,955
2018-09-18T12:04:49.539Z,750
2018-09-18T12:05:59.756Z,450
2018-09-18T12:07:09.074Z,590
2018-09-18T12:08:18.398Z,635
2018-09-18T12:09:27.739Z,1235
2018-09-18T12:10:37.603Z,615
2018-09-18T12:11:47.461Z,405
2018-09-18T12:12:57.054Z,405
2018-09-18T12:14:06.942Z,405
2018-09-18T12:15:16.829Z,415
2018-09-18T12:16:26.686Z,440
2018-09-18T12:17:36.647Z,685
2018-09-18T12:18:46.227Z,725
2018-09-18T12:19:56.080Z,695
2018-09-18T12:21:05.659Z,565
2018-09-18T12:22:15.483Z,480
2018-09-18T12:23:25.410Z,505
2018-09-18T12:24:34.994Z,520
2018-09-18T12:25:44.312Z,755
2018-09-18T12:26:54.168Z,685
2018-09-18T12:28:03.783Z,500
2018-09-18T12:29:13.132Z,420
2018-09-18T12:30:23.263Z,470
2018-09-18T12:31:32.849Z,390
2018-09-18T12:32:42.997Z,425
2018-09-18T12:33:52.855Z,460
2018-09-18T12:35:03.037Z,455
2018-09-18T12:36:12.614Z,430
2018-09-18T12:37:22.211Z,520
2018-09-18T12:38:31.794Z,510
2018-09-18T12:39:41.384Z,450
2018-09-18T12:40:51.507Z,430
2018-09-18T12:42:02.435Z,445
2018-09-18T12:43:11.879Z,475
2018-09-18T12:44:22.048Z,580
2018-09-18T12:45:31.905Z,740
2018-09-18T12:46:42.054Z,455
2018-09-18T12:47:51.735Z,560
2018-09-18T12:49:01.974Z,395
2018-09-18T12:50:13.282Z,465
2018-09-18T12:51:22.904Z,495
2018-09-18T12:52:33.028Z,645
2018-09-18T12:53:43.437Z,460
2018-09-18T12:54:53.032Z,640
2018-09-18T12:56:03.135Z,445
2018-09-18T12:57:13.734Z,470
2018-09-18T12:58:24.163Z,525
2018-09-18T12:59:34.683Z,650
2018-09-18T13:00:44.841Z,465
2018-09-18T13:01:54.706Z,445
2018-09-18T13:03:04.562Z,340
2018-09-18T13:04:14.417Z,350
2018-09-18T13:05:23.766Z,370
2018-09-18T13:06:34.896Z,350
2018-09-18T13:07:44.804Z,340
2018-09-18T13:08:54.688Z,385
2018-09-18T13:10:04.869Z,395
2018-09-18T13:11:14.683Z,365
2018-09-18T13:12:24.582Z,420
2018-09-18T13:13:34.764Z,330
2018-09-18T13:14:45.239Z,335
2018-09-18T13:15:55.201Z,360
2018-09-18T13:17:05.402Z,345
2018-09-18T13:18:15.099Z,340
2018-09-18T13:19:24.642Z,325
2018-09-18T13:20:34.227Z,325
2018-09-18T13:21:43.608Z,335
2018-09-18T13:22:53.235Z,325
2018-09-18T13:24:03.125Z,330
2018-09-18T13:25:12.706Z,325
2018-09-18T13:26:22.564Z,365
2018-09-18T13:27:32.692Z,350
2018-09-18T13:28:42.819Z,365
2018-09-18T13:29:52.937Z,535
2018-09-18T13:31:03.274Z,550
2018-09-18T13:32:12.981Z,365
2018-09-18T13:33:23.134Z,350
2018-09-18T13:34:33.261Z,580
2018-09-18T13:35:42.849Z,555
2018-09-18T13:36:52.707Z,465
2018-09-18T13:38:02.572Z,410
2018-09-18T13:39:12.472Z,395
2018-09-18T13:40:22.594Z,350
2018-09-18T13:41:33.329Z,350
2018-09-18T13:42:43.196Z,385
2018-09-18T13:43:52.822Z,435
2018-09-18T13:45:02.954Z,540
2018-09-18T13:46:13.086Z,480
2018-09-18T13:47:22.987Z,585
2018-09-18T13:48:32.076Z,425
2018-09-18T13:49:42.255Z,465
2018-09-18T13:50:52.378Z,505
2018-09-18T13:52:02.806Z,495
2018-09-18T13:53:12.305Z,500
2018-09-18T13:54:22.161Z,490
2018-09-18T13:55:32.533Z,845
2018-09-18T13:56:43.309Z,1680
2018-09-18T13:57:52.994Z,2610
2018-09-18T13:59:03.119Z,1745
2018-09-18T14:00:13.275Z,2030
2018-09-18T14:01:23.612Z,2335
2018-09-18T14:02:33.783Z,2330
2018-09-18T14:03:43.647Z,2365
2018-09-18T14:04:54.254Z,2550
2018-09-18T14:06:04.223Z,2755
2018-09-18T14:07:13.566Z,2690
2018-09-18T14:08:23.917Z,2565
2018-09-18T14:09:34.871Z,2475
2018-09-18T14:10:45.087Z,2640
2018-09-18T14:11:54.689Z,2690
2018-09-18T14:13:04.904Z,2670
2018-09-18T14:14:15.136Z,2485
2018-09-18T14:15:25.066Z,2645
2018-09-18T14:16:34.940Z,2690
2018-09-18T14:17:45.045Z,2605
2018-09-18T14:18:54.931Z,2625
2018-09-18T14:20:04.844Z,2590
2018-09-18T14:21:14.657Z,2650
2018-09-18T14:22:24.816Z,2575
2018-09-18T14:23:35.155Z,2455
2018-09-18T14:24:44.749Z,2655
2018-09-18T14:25:54.910Z,2535
2018-09-18T14:27:05.252Z,2005
2018-09-18T14:28:15.129Z,2285
2018-09-18T14:29:24.986Z,2410
2018-09-18T14:30:35.152Z,1195
2018-09-18T14:31:45.014Z,430
2018-09-18T14:32:55.173Z,425
2018-09-18T14:34:05.324Z,485
2018-09-18T14:35:14.962Z,425
2018-09-18T14:36:23.739Z,565
2018-09-18T14:37:33.333Z,440
2018-09-18T14:38:42.917Z,395
2018-09-18T14:39:52.505Z,375
2018-09-18T14:41:02.660Z,385
2018-09-18T14:42:12.250Z,500
2018-09-18T14:43:22.887Z,525
2018-09-18T14:44:32.735Z,410
2018-09-18T14:45:42.911Z,365
2018-09-18T14:46:53.245Z,375
2018-09-18T14:48:03.155Z,345
2018-09-18T14:49:12.469Z,440
2018-09-18T14:50:21.786Z,395
2018-09-18T14:51:31.930Z,455
2018-09-18T14:52:41.537Z,705
2018-09-18T14:53:51.421Z,750
2018-09-18T14:55:01.555Z,485
2018-09-18T14:56:11.422Z,485
2018-09-18T14:57:21.512Z,625
2018-09-18T14:58:30.823Z,440
2018-09-18T14:59:40.954Z,385
2018-09-18T15:00:50.804Z,425
2018-09-18T15:02:00.657Z,550
2018-09-18T15:03:10.990Z,1145
2018-09-18T15:04:20.871Z,520
2018-09-18T15:05:30.730Z,345
2018-09-18T15:06:40.316Z,425
2018-09-18T15:07:50.168Z,750
2018-09-18T15:09:00.306Z,700
2018-09-18T15:10:10.493Z,590
2018-09-18T15:11:20.348Z,450
2018-09-18T15:12:29.928Z,345
2018-09-18T15:13:39.563Z,465
2018-09-18T15:14:50.222Z,425
2018-09-18T15:15:59.673Z,360
2018-09-18T15:17:09.258Z,375
2018-09-18T15:18:19.117Z,345
2018-09-18T15:19:28.426Z,350
2018-09-18T15:20:38.570Z,515
2018-09-18T15:21:48.174Z,450
2018-09-18T15:22:57.768Z,530
2018-09-18T15:24:07.362Z,1620
2018-09-18T15:25:17.211Z,1435
2018-09-18T15:26:27.064Z,1370
2018-09-18T15:27:37.212Z,1910
2018-09-18T15:28:46.899Z,1725
2018-09-18T15:29:56.213Z,2165
2018-09-18T15:31:06.100Z,710
2018-09-18T15:32:15.927Z,2090
2018-09-18T15:33:25.510Z,2215
2018-09-18T15:34:35.064Z,2090
2018-09-18T15:35:44.939Z,2245
2018-09-18T15:36:55.060Z,2190
2018-09-18T15:38:04.644Z,2115
2018-09-18T15:39:14.253Z,2115
2018-09-18T15:40:24.393Z,2090
2018-09-18T15:41:33.720Z,2110
2018-09-18T15:42:43.926Z,2095
2018-09-18T15:43:53.248Z,1955
2018-09-18T15:45:02.843Z,1920
2018-09-18T15:46:12.933Z,1625
2018-09-18T15:47:22.564Z,820
2018-09-18T15:48:33.155Z,485
2018-09-18T15:49:43.026Z,520
2018-09-18T15:50:52.342Z,360
2018-09-18T15:52:01.870Z,390
2018-09-18T15:53:12.114Z,300
2018-09-18T15:54:22.310Z,355
2018-09-18T15:55:32.516Z,495
2018-09-18T15:56:42.114Z,460
2018-09-18T15:57:52.355Z,390
2018-09-18T15:59:02.298Z,445
2018-09-18T16:00:11.607Z,1070
2018-09-18T16:01:21.759Z,840
2018-09-18T16:02:31.692Z,520
2018-09-18T16:03:42.057Z,335
2018-09-18T16:04:52.103Z,305
2018-09-18T16:06:02.239Z,340
2018-09-18T16:07:11.826Z,295
2018-09-18T16:08:21.688Z,370
2018-09-18T16:09:31.326Z,620
2018-09-18T16:10:40.969Z,885
2018-09-18T16:11:51.108Z,1030
2018-09-18T16:13:00.971Z,1265
2018-09-18T16:14:10.824Z,1220
2018-09-18T16:15:21.548Z,1250
2018-09-18T16:16:31.601Z,1225
2018-09-18T16:17:41.520Z,1210
2018-09-18T16:18:51.392Z,1160
2018-09-18T16:20:01.270Z,1075
2018-09-18T16:21:11.137Z,1015
2018-09-18T16:22:21.076Z,1110